KDUJ/DUJ METAR and TAF weather

Enter ICAO airport designator
Station Type Date Time Source
KDUJ METAR 2020/07/07 08:53 UTC NOAA

KDUJ 070853Z AUTO 00000KT 10SM CLR 19/17 A3007 RMK AO2 SLP165 T01890167 55003


Station Type Date Time Source
KDUJ Decoded METAR 2020/07/07 08:53 UTC NOAA

DU BOIS-JEFFERSON COUNTY, PA, United States (KDUJ) 41-11N 078-53W
Jul 07, 2020 - 04:53 AM EDT / 2020.07.07 0853 UTC
Wind: Calm:0
Visibility: 10 mile(s):0
Sky conditions: clear
Temperature: 66.0 F (18.9 C)
Dew Point: 62.1 F (16.7 C)
Relative Humidity: 87%
Pressure (altimeter): 30.07 in. Hg (1018 hPa)
Pressure tendency: 0.01 inches (0.3 hPa) lower than three hours ago
ob: KDUJ 070853Z AUTO 00000KT 10SM CLR 19/17 A3007 RMK AO2 SLP165 T01890167 55003
cycle: 9

Station Type Date Time Source
KDUJ TAF 2020/07/07 06:22 UTC NOAA

TAF KDUJ 070520Z 0706/0806 VRB03KT P6SM SKC
FM071700 23004KT P6SM SCT050
TEMPO 0721/0724 P6SM -TSRA BKN050CB

Example: see airport list